createdAt,value
2022-09-03T00:01:07.598Z,42.83
2022-09-03T00:03:39.286Z,42.89
2022-09-03T00:06:13.002Z,42.75
2022-09-03T00:09:00.193Z,42.80
2022-09-03T00:11:31.570Z,42.84
2022-09-03T00:14:04.022Z,43.21
2022-09-03T00:16:41.081Z,42.89
2022-09-03T00:19:08.074Z,43.04
2022-09-03T00:21:40.104Z,42.88
2022-09-03T00:24:14.103Z,43.24
2022-09-03T00:26:45.122Z,43.55
2022-09-03T00:29:15.888Z,43.31
2022-09-03T00:31:46.043Z,43.23
2022-09-03T00:34:20.209Z,43.48
2022-09-03T00:36:47.304Z,43.73
2022-09-03T00:39:18.543Z,43.41
2022-09-03T00:42:09.002Z,43.61
2022-09-03T00:44:58.433Z,44.04
2022-09-03T00:47:34.570Z,43.74
2022-09-03T00:50:08.543Z,43.92
2022-09-03T00:52:45.644Z,43.69
2022-09-03T00:55:38.879Z,43.98
2022-09-03T00:58:26.098Z,43.99
2022-09-03T01:00:54.583Z,43.94
2022-09-03T01:03:32.695Z,44.27
2022-09-03T01:06:17.069Z,44.31
2022-09-03T01:09:17.368Z,44.17
2022-09-03T01:11:55.169Z,44.08
2022-09-03T01:14:34.871Z,44.77
2022-09-03T01:17:08.965Z,44.51
2022-09-03T01:20:01.938Z,44.57
2022-09-03T01:23:11.880Z,44.63
2022-09-03T01:25:53.529Z,44.75
2022-09-03T01:28:40.963Z,44.71
2022-09-03T01:31:24.182Z,44.51
2022-09-03T01:34:01.157Z,44.57
2022-09-03T01:36:37.522Z,45.10
2022-09-03T01:39:06.393Z,44.62
2022-09-03T01:41:48.114Z,44.76
2022-09-03T01:44:24.231Z,44.76
2022-09-03T01:46:55.502Z,44.96
2022-09-03T01:49:28.588Z,45.17
2022-09-03T01:52:03.065Z,44.90
2022-09-03T01:54:51.873Z,45.03
2022-09-03T01:57:37.538Z,45.41
2022-09-03T02:00:08.590Z,45.31
2022-09-03T02:02:38.410Z,45.15
2022-09-03T02:05:08.791Z,45.43
2022-09-03T02:07:38.271Z,45.32
2022-09-03T02:10:08.333Z,45.06
2022-09-03T02:12:38.666Z,45.47
2022-09-03T02:15:12.823Z,45.51
2022-09-03T02:17:41.899Z,45.74
2022-09-03T02:20:12.527Z,45.56
2022-09-03T02:22:41.037Z,45.45
2022-09-03T02:25:09.201Z,45.34
2022-09-03T02:27:36.027Z,45.39
2022-09-03T02:30:04.545Z,45.30
2022-09-03T02:32:33.393Z,45.37
2022-09-03T02:35:04.865Z,45.42
2022-09-03T02:37:31.678Z,45.97
2022-09-03T02:40:02.247Z,45.70
2022-09-03T02:42:29.447Z,45.60
2022-09-03T02:45:04.194Z,45.50
2022-09-03T02:47:34.396Z,45.79
2022-09-03T02:50:01.448Z,45.86
2022-09-03T02:52:28.809Z,45.68
2022-09-03T02:54:55.693Z,45.80
2022-09-03T02:57:27.322Z,45.69
2022-09-03T02:59:56.102Z,45.61
2022-09-03T03:02:22.898Z,45.97
2022-09-03T03:04:54.599Z,45.83
2022-09-03T03:07:22.492Z,45.89
2022-09-03T03:09:49.252Z,45.91
2022-09-03T03:12:16.206Z,45.69
2022-09-03T03:14:43.710Z,45.89
2022-09-03T03:17:10.463Z,45.97
2022-09-03T03:19:38.726Z,46.17
2022-09-03T03:22:09.314Z,46.14
2022-09-03T03:24:36.382Z,46.22
2022-09-03T03:27:03.714Z,46.39
2022-09-03T03:29:30.548Z,46.41
2022-09-03T03:31:57.464Z,46.38
2022-09-03T03:34:24.260Z,46.42
2022-09-03T03:36:51.058Z,46.47
2022-09-03T03:39:19.464Z,46.47
2022-09-03T03:41:46.590Z,46.47
2022-09-03T03:44:13.377Z,46.57
2022-09-03T03:46:41.654Z,46.67
2022-09-03T03:49:09.461Z,46.95
2022-09-03T03:51:37.484Z,46.74
2022-09-03T03:54:05.602Z,46.87
2022-09-03T03:56:36.271Z,46.84
2022-09-03T03:59:04.146Z,46.89
2022-09-03T04:01:31.119Z,47.09
2022-09-03T04:04:00.616Z,47.04
2022-09-03T04:06:28.334Z,47.13
2022-09-03T04:08:56.773Z,47.04
2022-09-03T04:11:24.897Z,47.23
2022-09-03T04:13:55.490Z,47.13
2022-09-03T04:16:23.814Z,47.27
2022-09-03T04:18:52.688Z,47.37
2022-09-03T04:21:21.308Z,47.40
2022-09-03T04:23:50.402Z,47.27
2022-09-03T04:26:19.581Z,47.38
2022-09-03T04:28:46.931Z,47.40
2022-09-03T04:31:17.857Z,47.51
2022-09-03T04:33:45.050Z,47.64
2022-09-03T04:36:13.669Z,47.62
2022-09-03T04:38:43.161Z,47.68
2022-09-03T04:41:15.044Z,47.63
2022-09-03T04:43:42.331Z,47.87
2022-09-03T04:46:16.393Z,47.85
2022-09-03T04:48:49.116Z,47.74
2022-09-03T04:51:18.760Z,47.80
2022-09-03T04:53:49.066Z,47.89
2022-09-03T04:56:17.653Z,48.00
2022-09-03T04:58:45.721Z,47.94
2022-09-03T05:01:16.743Z,48.96
2022-09-03T05:03:43.883Z,48.21
2022-09-03T05:06:12.091Z,48.09
2022-09-03T05:08:39.049Z,48.46
2022-09-03T05:11:07.391Z,48.70
2022-09-03T05:13:36.241Z,48.62
2022-09-03T05:16:05.689Z,48.73
2022-09-03T05:18:32.782Z,48.93
2022-09-03T05:21:01.962Z,48.81
2022-09-03T05:23:33.234Z,48.94
2022-09-03T05:26:06.222Z,49.17
2022-09-03T05:28:38.607Z,49.31
2022-09-03T05:31:10.883Z,49.24
2022-09-03T05:33:40.281Z,49.37
2022-09-03T05:36:09.828Z,49.32
2022-09-03T05:38:38.180Z,49.41
2022-09-03T05:41:06.935Z,49.64
2022-09-03T05:43:34.423Z,49.68
2022-09-03T05:46:03.327Z,49.58
2022-09-03T05:48:30.937Z,49.67
2022-09-03T05:51:04.768Z,49.94
2022-09-03T05:53:34.517Z,49.89
2022-09-03T05:56:06.287Z,50.25
2022-09-03T05:58:34.489Z,50.16
2022-09-03T06:01:09.927Z,50.44
2022-09-03T06:03:37.996Z,50.66
2022-09-03T06:06:05.557Z,50.92
2022-09-03T06:08:32.715Z,50.75
2022-09-03T06:11:00.561Z,50.55
2022-09-03T06:13:36.886Z,50.46
2022-09-03T06:16:11.313Z,50.41
2022-09-03T06:18:38.255Z,50.57
2022-09-03T06:21:07.676Z,51.01
2022-09-03T06:23:36.439Z,50.90
2022-09-03T06:26:06.050Z,50.82
2022-09-03T06:28:43.997Z,51.00
2022-09-03T06:31:12.509Z,50.82
2022-09-03T06:33:41.331Z,50.61
2022-09-03T06:36:10.903Z,50.85
2022-09-03T06:38:38.682Z,50.78
2022-09-03T06:41:07.780Z,50.71
2022-09-03T06:43:37.548Z,50.90
2022-09-03T06:46:07.047Z,50.99
2022-09-03T06:48:35.762Z,50.97
2022-09-03T06:51:04.231Z,51.16
2022-09-03T06:53:34.218Z,51.21
2022-09-03T06:56:10.951Z,50.99
2022-09-03T06:58:42.781Z,51.29
2022-09-03T07:01:14.149Z,51.02
2022-09-03T07:03:43.255Z,51.43
2022-09-03T07:06:12.035Z,51.36
2022-09-03T07:08:38.986Z,51.46
2022-09-03T07:11:08.005Z,51.54
2022-09-03T07:13:35.113Z,51.44
2022-09-03T07:16:04.909Z,51.32
2022-09-03T07:18:32.775Z,51.49
2022-09-03T07:21:00.097Z,51.36
2022-09-03T07:23:27.354Z,51.21
2022-09-03T07:25:55.658Z,50.99
2022-09-03T07:28:22.682Z,51.08
2022-09-03T07:30:49.345Z,51.34
2022-09-03T07:33:17.943Z,50.95
2022-09-03T07:35:45.075Z,51.11
2022-09-03T07:38:12.324Z,51.19
2022-09-03T07:40:39.312Z,50.45
2022-09-03T07:43:05.984Z,50.63
2022-09-03T07:45:34.306Z,50.25
2022-09-03T07:48:01.163Z,50.29
2022-09-03T07:50:29.253Z,50.23
2022-09-03T07:52:56.863Z,50.20
2022-09-03T07:55:25.274Z,50.42
2022-09-03T07:57:56.615Z,50.26
2022-09-03T08:00:23.402Z,50.08
2022-09-03T08:02:52.215Z,49.90
2022-09-03T08:05:23.168Z,49.67
2022-09-03T08:07:53.581Z,49.71
2022-09-03T08:10:22.672Z,49.92
2022-09-03T08:12:53.140Z,49.63
2022-09-03T08:15:20.316Z,49.90
2022-09-03T08:17:46.995Z,49.65
2022-09-03T08:20:13.953Z,49.38
2022-09-03T08:22:40.905Z,49.07
2022-09-03T08:25:09.795Z,48.99
2022-09-03T08:27:43.251Z,48.84
2022-09-03T08:30:12.182Z,48.84
2022-09-03T08:32:39.311Z,48.46
2022-09-03T08:35:07.412Z,48.80
2022-09-03T08:37:34.297Z,48.75
2022-09-03T08:40:02.852Z,48.34
2022-09-03T08:42:48.521Z,48.02
2022-09-03T08:45:19.100Z,47.75
2022-09-03T08:47:49.549Z,47.95
2022-09-03T08:50:25.294Z,47.43
2022-09-03T08:52:55.617Z,47.29
2022-09-03T08:55:27.243Z,47.66
2022-09-03T08:58:02.904Z,46.92
2022-09-03T09:00:42.884Z,47.18
2022-09-03T09:03:29.783Z,46.65
2022-09-03T09:06:07.966Z,46.64
2022-09-03T09:08:47.412Z,46.79
2022-09-03T09:11:25.424Z,46.27
2022-09-03T09:14:00.456Z,46.20
2022-09-03T09:16:36.746Z,45.77
2022-09-03T09:19:21.056Z,46.06
2022-09-03T09:21:53.559Z,45.44
2022-09-03T09:24:27.913Z,45.46
2022-09-03T09:27:00.336Z,44.78
2022-09-03T09:29:33.311Z,45.37
2022-09-03T09:32:00.291Z,45.16
2022-09-03T09:34:27.320Z,44.63
2022-09-03T09:36:56.134Z,44.35
2022-09-03T09:39:23.764Z,44.27
2022-09-03T09:42:01.750Z,43.94
2022-09-03T09:44:30.075Z,43.79
2022-09-03T09:47:05.732Z,43.96
2022-09-03T09:49:35.238Z,44.36
2022-09-03T09:52:04.839Z,44.27
2022-09-03T09:54:31.659Z,43.41
2022-09-03T09:57:00.299Z,42.58
2022-09-03T09:59:26.961Z,40.41
2022-09-03T10:02:22.185Z,37.85
2022-09-03T10:04:49.970Z,37.28
2022-09-03T10:07:23.968Z,36.15
2022-09-03T10:10:01.679Z,33.57
2022-09-03T10:12:32.573Z,33.87
2022-09-03T10:15:01.957Z,32.22
2022-09-03T10:17:42.154Z,32.48
2022-09-03T10:20:13.915Z,31.60
2022-09-03T10:22:48.369Z,30.67
2022-09-03T10:25:29.046Z,29.15
2022-09-03T10:27:59.912Z,28.92
2022-09-03T10:30:27.015Z,28.13
2022-09-03T10:33:05.386Z,27.27
2022-09-03T10:35:37.931Z,26.17
2022-09-03T10:38:10.613Z,26.33
2022-09-03T10:40:40.205Z,26.11
2022-09-03T10:43:25.973Z,25.36
2022-09-03T10:46:00.288Z,23.51
2022-09-03T10:49:04.948Z,23.27
2022-09-03T10:51:40.889Z,24.30
2022-09-03T10:54:32.210Z,23.15
2022-09-03T10:57:08.285Z,23.60
2022-09-03T10:59:50.138Z,23.50
2022-09-03T11:02:39.785Z,23.60
2022-09-03T11:05:16.081Z,22.87
2022-09-03T11:07:49.061Z,22.17
2022-09-03T11:10:22.056Z,21.58
2022-09-03T11:13:00.163Z,21.69
2022-09-03T11:15:32.479Z,21.08
2022-09-03T11:18:04.627Z,20.83
2022-09-03T11:20:33.783Z,21.34
2022-09-03T11:23:04.616Z,21.54
2022-09-03T11:25:34.809Z,20.45
2022-09-03T11:28:14.302Z,19.89
2022-09-03T11:30:55.938Z,20.94
2022-09-03T11:33:25.130Z,20.39
2022-09-03T11:35:59.113Z,19.67
2022-09-03T11:38:27.436Z,19.98
2022-09-03T11:41:00.351Z,19.32
2022-09-03T11:43:30.156Z,20.49
2022-09-03T11:46:30.454Z,20.20
2022-09-03T11:49:09.631Z,19.89
2022-09-03T11:51:42.217Z,19.79
2022-09-03T11:54:26.115Z,19.21
2022-09-03T11:57:07.718Z,18.24
2022-09-03T11:59:34.557Z,19.60
2022-09-03T12:02:12.035Z,19.84
2022-09-03T12:04:45.964Z,20.09
2022-09-03T12:07:42.435Z,19.23
2022-09-03T12:10:21.246Z,19.20
2022-09-03T12:13:01.324Z,19.49
2022-09-03T12:15:53.038Z,19.18
2022-09-03T12:18:29.472Z,20.12
2022-09-03T12:21:04.421Z,19.11
2022-09-03T12:23:44.452Z,19.21
2022-09-03T12:26:14.363Z,19.10
2022-09-03T12:28:45.534Z,19.02
2022-09-03T12:31:16.723Z,19.39
2022-09-03T12:33:43.681Z,18.99
2022-09-03T12:36:10.409Z,18.29
2022-09-03T12:39:10.029Z,18.51
2022-09-03T12:41:30.457Z,18.31
2022-09-03T12:43:59.766Z,18.47
2022-09-03T12:46:32.305Z,18.54
2022-09-03T12:52:05.840Z,18.52
2022-09-03T12:54:37.723Z,18.26
2022-09-03T12:57:05.161Z,18.67
2022-09-03T12:59:36.765Z,18.92
2022-09-03T13:02:12.761Z,18.49
2022-09-03T13:04:41.542Z,19.09
2022-09-03T13:07:13.987Z,19.54
2022-09-03T13:09:42.743Z,19.43
2022-09-03T13:12:22.090Z,20.24
2022-09-03T13:14:52.705Z,20.61
2022-09-03T13:17:40.831Z,22.12
2022-09-03T13:20:29.627Z,21.78
2022-09-03T13:23:10.529Z,21.94
2022-09-03T13:25:47.579Z,21.59
2022-09-03T13:28:31.972Z,21.35
2022-09-03T13:31:06.349Z,21.04
2022-09-03T13:33:38.633Z,21.54
2022-09-03T13:36:10.923Z,21.55
2022-09-03T13:38:43.185Z,21.06
2022-09-03T13:41:14.529Z,21.33
2022-09-03T13:43:45.567Z,21.08
2022-09-03T13:46:18.106Z,20.48
2022-09-03T13:48:45.696Z,20.48
2022-09-03T13:51:18.606Z,20.23
2022-09-03T13:53:57.921Z,20.32
2022-09-03T13:56:36.259Z,20.05
2022-09-03T13:59:09.667Z,20.31
2022-09-03T14:01:55.894Z,20.12
2022-09-03T14:04:30.247Z,20.30
2022-09-03T14:07:03.640Z,21.34
2022-09-03T14:09:37.942Z,21.66
2022-09-03T14:12:14.274Z,21.13
2022-09-03T14:14:53.078Z,21.28
2022-09-03T14:17:31.221Z,20.77
2022-09-03T14:20:03.020Z,21.71
2022-09-03T14:22:44.140Z,21.06
2022-09-03T14:25:16.230Z,22.12
2022-09-03T14:27:44.632Z,22.00
2022-09-03T14:30:24.967Z,21.63
2022-09-03T14:32:57.870Z,22.07
2022-09-03T14:35:45.477Z,22.51
2022-09-03T14:38:56.436Z,23.01
2022-09-03T14:41:45.851Z,22.10
2022-09-03T14:44:34.419Z,22.70
2022-09-03T14:47:15.478Z,22.99
2022-09-03T14:50:03.206Z,23.55
2022-09-03T14:52:53.418Z,23.20
2022-09-03T14:55:31.231Z,24.07
2022-09-03T14:58:17.070Z,22.53
2022-09-03T15:00:57.987Z,22.81
2022-09-03T15:03:44.299Z,22.10
2022-09-03T15:06:20.433Z,22.96
2022-09-03T15:09:17.732Z,21.58
2022-09-03T15:11:50.570Z,21.27
2022-09-03T15:14:24.634Z,20.87
2022-09-03T15:16:59.893Z,21.65
2022-09-03T15:19:48.522Z,21.59
2022-09-03T15:22:27.753Z,21.49
2022-09-03T15:25:03.844Z,21.68
2022-09-03T15:27:46.425Z,22.17
2022-09-03T15:30:16.221Z,21.80
2022-09-03T15:32:58.096Z,21.88
2022-09-03T15:35:40.820Z,21.04
2022-09-03T15:38:12.892Z,21.74
2022-09-03T15:40:48.181Z,21.47
2022-09-03T15:43:19.508Z,21.33
2022-09-03T15:45:52.953Z,20.46
2022-09-03T15:48:33.616Z,20.71
2022-09-03T15:51:11.332Z,21.47
2022-09-03T15:53:45.864Z,21.66
2022-09-03T15:56:20.579Z,20.60
2022-09-03T15:59:01.495Z,20.06
2022-09-03T16:01:39.150Z,20.31
2022-09-03T16:04:22.640Z,20.48
2022-09-03T16:06:57.231Z,21.33
2022-09-03T16:09:50.283Z,20.61
2022-09-03T16:12:36.013Z,20.48
2022-09-03T16:15:10.315Z,20.83
2022-09-03T16:17:46.965Z,21.71
2022-09-03T16:20:20.246Z,21.67
2022-09-03T16:22:52.216Z,21.85
2022-09-03T16:25:24.662Z,22.41
2022-09-03T16:28:01.788Z,23.60
2022-09-03T16:30:48.510Z,23.64
2022-09-03T16:33:26.849Z,24.32
2022-09-03T16:36:02.229Z,24.58
2022-09-03T16:38:44.130Z,24.56
2022-09-03T16:41:23.088Z,25.81
2022-09-03T16:44:02.668Z,25.47
2022-09-03T16:46:40.637Z,25.66
2022-09-03T16:49:19.693Z,26.90
2022-09-03T16:51:55.327Z,25.83
2022-09-03T16:54:43.479Z,26.65
2022-09-03T16:57:23.677Z,26.20
2022-09-03T17:00:05.471Z,26.87
2022-09-03T17:03:10.840Z,26.92
2022-09-03T17:06:00.854Z,27.51
2022-09-03T17:08:38.989Z,28.04
2022-09-03T17:11:18.900Z,28.43
2022-09-03T17:13:59.149Z,28.03
2022-09-03T17:16:40.034Z,28.43
2022-09-03T17:19:14.556Z,28.85
2022-09-03T17:21:48.826Z,28.59
2022-09-03T17:24:29.535Z,29.44
2022-09-03T17:27:18.094Z,29.58
2022-09-03T17:30:12.144Z,29.56
2022-09-03T17:33:20.524Z,29.85
2022-09-03T17:35:55.461Z,30.01
2022-09-03T17:38:39.604Z,30.26
2022-09-03T17:41:22.115Z,30.11
2022-09-03T17:43:56.908Z,30.62
2022-09-03T17:46:32.840Z,31.06
2022-09-03T17:49:01.146Z,30.49
2022-09-03T17:51:35.945Z,31.53
2022-09-03T17:54:08.178Z,31.54
2022-09-03T17:56:46.792Z,31.88
2022-09-03T17:59:22.451Z,32.28
2022-09-03T18:01:57.503Z,32.11
2022-09-03T18:04:34.200Z,32.56
2022-09-03T18:07:10.887Z,33.46
2022-09-03T18:09:45.176Z,33.40
2022-09-03T18:12:19.388Z,33.57
2022-09-03T18:14:52.767Z,34.02
2022-09-03T18:17:28.817Z,33.99
2022-09-03T18:20:03.102Z,34.35
2022-09-03T18:22:37.752Z,34.92
2022-09-03T18:25:05.747Z,34.89
2022-09-03T18:27:38.970Z,35.33
2022-09-03T18:30:08.686Z,35.77
2022-09-03T18:32:37.278Z,35.58
2022-09-03T18:35:04.404Z,35.67
2022-09-03T18:37:31.934Z,36.16
2022-09-03T18:39:58.679Z,36.27
2022-09-03T18:42:31.798Z,36.93
2022-09-03T18:45:20.842Z,37.08
2022-09-03T18:48:06.003Z,37.89
2022-09-03T18:50:46.929Z,37.30
2022-09-03T18:53:29.581Z,37.57
2022-09-03T18:56:05.103Z,37.71
2022-09-03T18:58:42.532Z,37.65
2022-09-03T19:01:27.176Z,38.02
2022-09-03T19:04:06.698Z,38.10
2022-09-03T19:06:42.793Z,38.04
2022-09-03T19:09:21.431Z,38.22
2022-09-03T19:12:04.372Z,38.76
2022-09-03T19:14:42.796Z,38.19
2022-09-03T19:17:26.450Z,39.09
2022-09-03T19:20:02.966Z,38.68
2022-09-03T19:22:34.398Z,38.90
2022-09-03T19:25:05.687Z,39.20
2022-09-03T19:27:55.741Z,39.71
2022-09-03T19:30:44.845Z,38.79
2022-09-03T19:33:37.828Z,38.99
2022-09-03T19:36:16.922Z,38.82
2022-09-03T19:38:58.425Z,38.85
2022-09-03T19:41:32.440Z,39.03
2022-09-03T19:44:34.147Z,39.50
2022-09-03T19:47:02.463Z,39.88
2022-09-03T19:49:43.874Z,39.18
2022-09-03T19:52:19.734Z,40.22
2022-09-03T19:54:55.884Z,39.33
2022-09-03T19:57:24.086Z,39.38
2022-09-03T19:59:54.219Z,39.77
2022-09-03T20:02:21.266Z,39.95
2022-09-03T20:04:58.124Z,40.03
2022-09-03T20:07:25.369Z,40.01
2022-09-03T20:09:53.942Z,40.08
2022-09-03T20:12:25.251Z,40.35
2022-09-03T20:14:51.985Z,40.85
2022-09-03T20:17:35.184Z,40.22
2022-09-03T20:20:15.321Z,40.43
2022-09-03T20:22:51.075Z,40.62
2022-09-03T20:25:47.609Z,41.16
2022-09-03T20:28:30.234Z,40.99
2022-09-03T20:31:01.691Z,40.66
2022-09-03T20:33:46.410Z,40.96
2022-09-03T20:36:29.666Z,40.80
2022-09-03T20:39:22.509Z,41.23
2022-09-03T20:42:07.403Z,41.02
2022-09-03T20:44:51.071Z,41.32
2022-09-03T20:47:43.846Z,41.16
2022-09-03T20:50:25.034Z,41.45
2022-09-03T20:53:03.229Z,41.60
2022-09-03T20:55:35.421Z,41.77
2022-09-03T20:58:09.690Z,41.74
2022-09-03T21:00:48.290Z,41.87
2022-09-03T21:03:18.373Z,41.57
2022-09-03T21:05:58.221Z,41.84
2022-09-03T21:08:48.346Z,42.03
2022-09-03T21:11:21.219Z,41.89
2022-09-03T21:13:57.477Z,42.59
2022-09-03T21:16:31.047Z,41.95
2022-09-03T21:19:07.004Z,42.13
2022-09-03T21:21:48.862Z,42.13
2022-09-03T21:24:32.717Z,42.07
2022-09-03T21:27:04.846Z,42.13
2022-09-03T21:29:37.657Z,42.31
2022-09-03T21:32:09.360Z,42.16
2022-09-03T21:34:42.172Z,42.11
2022-09-03T21:37:12.587Z,42.14
2022-09-03T21:39:48.475Z,42.13
2022-09-03T21:42:24.569Z,42.24
2022-09-03T21:44:57.634Z,42.50
2022-09-03T21:47:28.212Z,42.46
2022-09-03T21:50:06.415Z,42.68
2022-09-03T21:52:44.815Z,42.68
2022-09-03T21:55:22.682Z,42.76
2022-09-03T21:58:04.665Z,42.23
2022-09-03T22:00:31.655Z,42.60
2022-09-03T22:02:59.543Z,42.80
2022-09-03T22:05:31.252Z,42.86
2022-09-03T22:08:12.152Z,42.62
2022-09-03T22:10:51.266Z,42.78
2022-09-03T22:13:28.353Z,42.83
2022-09-03T22:16:01.985Z,42.76
2022-09-03T22:18:30.285Z,43.08
2022-09-03T22:21:09.048Z,43.07
2022-09-03T22:23:47.074Z,42.87
2022-09-03T22:26:27.047Z,43.36
2022-09-03T22:29:05.682Z,42.90
2022-09-03T22:31:46.135Z,42.93
2022-09-03T22:34:26.160Z,43.17
2022-09-03T22:37:00.958Z,43.02
2022-09-03T22:39:33.658Z,43.07
2022-09-03T22:45:20.864Z,42.85
2022-09-03T22:47:59.112Z,42.98
2022-09-03T22:50:34.163Z,43.20
2022-09-03T22:53:14.919Z,43.39
2022-09-03T22:55:49.181Z,43.25
2022-09-03T22:58:19.668Z,43.27
2022-09-03T23:01:00.200Z,43.22
2022-09-03T23:03:40.279Z,43.14
2022-09-03T23:06:13.021Z,43.09
2022-09-03T23:08:47.550Z,43.26
2022-09-03T23:11:22.657Z,43.69
2022-09-03T23:13:54.869Z,43.17
2022-09-03T23:16:31.820Z,43.33
2022-09-03T23:19:03.246Z,43.35
2022-09-03T23:21:34.237Z,43.73
2022-09-03T23:24:07.565Z,43.38
2022-09-03T23:26:39.038Z,43.60
2022-09-03T23:29:12.411Z,43.70
2022-09-03T23:31:42.875Z,43.55
2022-09-03T23:34:11.761Z,43.38
2022-09-03T23:37:10.337Z,43.42
2022-09-03T23:40:16.411Z,43.98
2022-09-03T23:43:01.642Z,43.61
2022-09-03T23:45:36.519Z,43.65
2022-09-03T23:48:18.391Z,44.03
2022-09-03T23:50:52.625Z,43.94
2022-09-03T23:53:44.349Z,43.91
2022-09-03T23:56:32.183Z,43.94
2022-09-03T23:59:12.225Z,43.76
